Time;durP1;ratioP1;P1;durP2;ratioP2;P2;SDS_P1;SDS_P2;PMS_P1;PMS_P2;Temp;Humidity;BMP_temperature;BMP_pressure;BME280_temperature;BME280_humidity;BME280_pressure;Samples;Min_cycle;Max_cycle;Signal;HPM_P1;HPM_P2
2021/01/04 00:00:12;;;;;;;52.53;32.05;;;;;;;0.21;87.48;95481.13;1032348;28;20030;-43
2021/01/04 00:00:49;;;;;;;50.47;31.95;;;;;;;0.16;88.21;95484.16;1040546;28;20025;-43
2021/01/04 00:01:47;;;;;;;49.80;31.70;;;;;;;0.20;88.42;95478.69;1044572;28;20032;-42
2021/01/04 00:02:24;;;;;;;48.17;29.10;;;;;;;0.27;87.24;95484.91;1044825;28;20044;-43
2021/01/04 00:03:12;;;;;;;46.97;29.52;;;;;;;0.27;86.47;95480.53;1036355;28;20014;-43
2021/01/04 00:03:42;;;;;;;49.65;30.92;;;;;;;0.24;86.95;95482.63;1036477;28;20069;-43
2021/01/04 00:04:19;;;;;;;51.83;31.47;;;;;;;0.22;87.37;95481.97;1040454;28;20126;-43
2021/01/04 00:05:11;;;;;;;53.05;33.03;;;;;;;0.21;87.74;95486.31;1043624;28;20476;-47
2021/01/04 00:06:08;;;;;;;50.33;31.58;;;;;;;0.22;87.39;95475.00;1044833;28;20429;-43
2021/01/04 00:07:15;;;;;;;55.33;35.85;;;;;;;0.20;87.75;95481.28;1044880;28;20490;-44
2021/01/04 00:08:00;;;;;;;65.43;37.33;;;;;;;0.19;87.92;95479.66;1044584;28;20510;-41
2021/01/04 00:08:55;;;;;;;119.95;60.88;;;;;;;0.24;87.17;95477.44;1040580;28;20105;-43
2021/01/04 00:09:43;;;;;;;107.97;56.30;;;;;;;0.32;86.74;95480.94;1036404;28;20025;-42
2021/01/04 00:11:01;;;;;;;121.60;60.40;;;;;;;0.28;86.61;95479.59;1030776;28;20031;-43
2021/01/04 00:12:11;;;;;;;113.68;54.55;;;;;;;0.23;86.92;95475.78;1040179;28;20044;-42
2021/01/04 00:12:49;;;;;;;93.60;48.05;;;;;;;0.24;87.38;95472.25;1044358;28;20412;-44
2021/01/04 00:13:59;;;;;;;75.82;42.28;;;;;;;0.24;87.40;95472.25;1036330;28;20025;-43
2021/01/04 00:14:58;;;;;;;65.60;36.75;;;;;;;0.19;87.20;95472.69;1034566;28;20022;-43
2021/01/04 00:15:40;;;;;;;58.97;34.10;;;;;;;0.25;87.24;95471.31;1037804;28;20051;-48
2021/01/04 00:16:52;;;;;;;57.35;34.85;;;;;;;0.25;86.84;95466.94;1036137;28;20026;-42
2021/01/04 00:17:25;;;;;;;55.92;33.38;;;;;;;0.26;87.42;95467.75;1039139;28;20033;-43
2021/01/04 00:17:58;;;;;;;56.13;34.15;;;;;;;0.24;87.04;95464.50;1040747;28;20495;-45
2021/01/04 00:18:44;;;;;;;57.70;34.40;;;;;;;0.21;87.58;95465.59;1044450;28;20029;-43
2021/01/04 00:19:33;;;;;;;54.00;33.70;;;;;;;0.23;87.95;95465.44;1044329;28;20036;-43
2021/01/04 00:20:27;;;;;;;56.47;34.42;;;;;;;0.14;87.55;95462.78;1044506;28;20044;-43
2021/01/04 00:21:04;;;;;;;55.60;34.28;;;;;;;0.12;87.98;95469.91;1044188;28;20086;-44
2021/01/04 00:22:10;;;;;;;55.47;33.72;;;;;;;0.19;87.53;95459.75;1044378;28;20044;-43
2021/01/04 00:22:54;;;;;;;56.17;32.28;;;;;;;0.23;87.24;95466.28;1031888;28;20026;-44
2021/01/04 00:23:50;;;;;;;55.58;33.85;;;;;;;0.22;87.54;95467.22;1020154;29;20492;-44
2021/01/04 00:24:31;;;;;;;52.80;31.35;;;;;;;0.23;87.02;95468.88;1021413;29;20058;-43
2021/01/04 00:25:12;;;;;;;52.67;32.25;;;;;;;0.26;87.79;95465.97;1026451;28;20031;-43
2021/01/04 00:25:52;;;;;;;54.65;33.47;;;;;;;0.21;87.90;95463.00;1028003;28;20582;-43
2021/01/04 00:26:59;;;;;;;59.10;34.88;;;;;;;0.16;89.17;95462.63;1028010;28;20056;-43
2021/01/04 00:27:36;;;;;;;57.95;35.28;;;;;;;0.22;88.93;95471.59;1026188;28;20066;-43
2021/01/04 00:28:08;;;;;;;55.13;35.63;;;;;;;0.24;89.20;95469.66;1021787;29;20481;-44
2021/01/04 00:28:39;;;;;;;56.80;35.78;;;;;;;0.19;89.06;95472.69;1024077;28;20027;-45
2021/01/04 00:29:10;;;;;;;59.77;34.87;;;;;;;0.20;89.25;95478.69;1024173;28;20098;-44
2021/01/04 00:29:40;;;;;;;54.90;35.25;;;;;;;0.18;89.69;95473.66;1025211;28;20090;-46
2021/01/04 00:30:18;;;;;;;57.37;35.80;;;;;;;0.22;89.28;95469.00;1031997;28;20119;-43
2021/01/04 00:30:53;;;;;;;57.75;35.72;;;;;;;0.21;89.50;95465.59;1033084;28;20026;-44
2021/01/04 00:31:26;;;;;;;57.75;35.80;;;;;;;0.20;89.80;95468.31;1031994;28;20345;-44
2021/01/04 00:32:06;;;;;;;60.47;36.53;;;;;;;0.16;89.82;95468.63;1027871;28;20023;-45
2021/01/04 00:32:36;;;;;;;54.53;35.40;;;;;;;0.22;89.39;95466.44;1028031;28;20034;-46
2021/01/04 00:33:15;;;;;;;61.97;36.47;;;;;;;0.25;89.55;95463.53;1029561;28;20459;-44
2021/01/04 00:33:54;;;;;;;55.42;35.15;;;;;;;0.23;89.64;95468.88;1034482;28;20514;-42
2021/01/04 00:34:48;;;;;;;46.45;31.48;;;;;;;0.28;87.81;95465.84;1032159;28;20467;-43
2021/01/04 00:35:19;;;;;;;46.30;30.27;;;;;;;0.32;87.28;95464.59;1032127;28;20471;-43
2021/01/04 00:35:54;;;;;;;49.20;30.58;;;;;;;0.26;87.04;95463.41;1032055;28;20037;-44
2021/01/04 00:36:33;;;;;;;45.35;29.55;;;;;;;0.28;86.80;95468.44;1036118;28;20030;-43
2021/01/04 00:37:58;;;;;;;45.47;28.83;;;;;;;0.21;86.89;95464.78;1032102;28;20030;-46
2021/01/04 00:39:03;;;;;;;47.65;30.05;;;;;;;0.27;86.57;95462.41;1015942;29;20056;-44
2021/01/04 00:39:43;;;;;;;50.97;29.20;;;;;;;0.17;87.12;95472.84;1019965;29;20031;-44
2021/01/04 00:40:33;;;;;;;49.17;29.77;;;;;;;0.14;87.32;95464.56;1020213;29;20020;-43
2021/01/04 00:41:25;;;;;;;46.03;28.02;;;;;;;0.18;87.23;95471.06;1020310;29;20051;-43
2021/01/04 00:41:59;;;;;;;49.22;29.55;;;;;;;0.18;87.80;95465.88;1021655;29;20446;-44
2021/01/04 00:42:43;;;;;;;53.13;31.63;;;;;;;0.21;87.54;95468.19;1024156;29;20472;-43
2021/01/04 00:43:23;;;;;;;47.65;30.30;;;;;;;0.19;87.25;95464.94;1016152;29;20122;-44
2021/01/04 00:43:55;;;;;;;48.65;30.30;;;;;;;0.19;87.59;95464.13;1012646;29;20039;-43
2021/01/04 00:44:34;;;;;;;47.53;30.02;;;;;;;0.19;87.09;95466.72;1008637;29;20518;-43
2021/01/04 00:45:13;;;;;;;49.33;30.25;;;;;;;0.24;87.34;95464.50;1013311;29;20455;-43
2021/01/04 00:45:46;;;;;;;46.28;29.67;;;;;;;0.29;86.79;95465.69;1019482;29;20532;-43
2021/01/04 00:46:51;;;;;;;46.50;29.15;;;;;;;0.29;86.56;95470.88;1022886;29;20476;-43
2021/01/04 00:47:50;;;;;;;47.53;29.33;;;;;;;0.27;86.39;95464.19;1008353;29;20554;-43
2021/01/04 00:48:45;;;;;;;48.50;29.52;;;;;;;0.24;86.58;95469.66;1000575;29;20383;-42
2021/01/04 00:49:23;;;;;;;46.63;28.48;;;;;;;0.26;86.72;95465.97;1003967;29;20068;-54
2021/01/04 00:50:03;;;;;;;47.78;27.90;;;;;;;0.28;86.93;95469.22;1008339;29;20470;-43
2021/01/04 00:51:02;;;;;;;45.08;28.33;;;;;;;0.26;86.70;95468.56;1008464;29;20479;-44
2021/01/04 00:51:32;;;;;;;44.72;28.35;;;;;;;0.19;86.89;95472.69;1009171;29;20036;-42
2021/01/04 00:52:14;;;;;;;45.87;28.67;;;;;;;0.19;87.39;95474.50;1012253;29;20043;-42
2021/01/04 00:53:02;;;;;;;44.53;28.80;;;;;;;0.24;86.76;95467.09;1004567;29;20128;-43
2021/01/04 00:53:35;;;;;;;47.10;28.52;;;;;;;0.23;86.03;95465.44;1004628;29;20471;-42
2021/01/04 00:54:38;;;;;;;46.25;29.23;;;;;;;0.24;86.57;95469.66;1000856;29;20062;-44
2021/01/04 00:55:23;;;;;;;44.75;27.85;;;;;;;0.23;86.40;95476.63;1004874;29;20029;-42
2021/01/04 00:56:15;;;;;;;43.38;27.55;;;;;;;0.32;85.78;95473.16;1007342;29;20101;-43
2021/01/04 00:57:07;;;;;;;43.03;28.60;;;;;;;0.26;86.06;95471.16;1008716;29;20029;-42
2021/01/04 00:58:01;;;;;;;47.85;29.13;;;;;;;0.19;86.40;95466.72;1004809;29;20041;-43
2021/01/04 00:59:07;;;;;;;43.67;28.63;;;;;;;0.22;87.05;95474.19;1004839;29;20067;-43
2021/01/04 00:59:47;;;;;;;45.88;28.50;;;;;;;0.18;87.05;95478.84;1015937;29;20036;-43
2021/01/04 01:00:23;;;;;;;47.40;29.92;;;;;;;0.21;87.46;95472.56;1012211;29;20040;-43
2021/01/04 01:01:07;;;;;;;49.28;30.23;;;;;;;0.08;87.54;95476.31;1012213;29;20016;-44
2021/01/04 01:01:49;;;;;;;46.55;29.55;;;;;;;0.11;87.84;95477.81;1012170;29;20390;-43
2021/01/04 01:02:40;;;;;;;47.38;28.92;;;;;;;0.14;87.87;95478.31;1016053;29;20036;-43
2021/01/04 01:03:30;;;;;;;46.97;30.25;;;;;;;0.18;87.70;95476.25;1016020;29;20477;-43
2021/01/04 01:04:28;;;;;;;47.15;28.35;;;;;;;0.19;87.71;95477.06;1012249;29;20077;-43
2021/01/04 01:05:39;;;;;;;46.28;27.95;;;;;;;0.20;87.67;95482.09;1012165;29;20039;-43
2021/01/04 01:06:51;;;;;;;44.60;27.08;;;;;;;0.08;87.85;95478.09;1008245;29;20452;-44
2021/01/04 01:07:53;;;;;;;46.38;29.13;;;;;;;0.10;87.71;95478.75;1008313;29;20115;-43
2021/01/04 01:08:27;;;;;;;45.10;27.80;;;;;;;0.14;87.55;95480.09;1008236;29;20518;-44
2021/01/04 01:08:58;;;;;;;44.53;29.20;;;;;;;0.14;87.52;95478.31;1015146;29;20426;-43
2021/01/04 01:09:30;;;;;;;44.43;27.70;;;;;;;0.17;87.56;95475.44;1016013;29;20028;-43
2021/01/04 01:10:00;;;;;;;47.75;29.77;;;;;;;0.16;87.69;95478.97;1012105;29;20281;-43
2021/01/04 01:10:35;;;;;;;43.47;28.40;;;;;;;0.13;87.55;95475.88;1015487;29;20028;-43
2021/01/04 01:11:09;;;;;;;47.00;30.10;;;;;;;0.12;88.08;95474.25;1016717;29;20473;-43
2021/01/04 01:12:12;;;;;;;51.90;31.17;;;;;;;0.12;87.87;95479.41;1019904;29;20054;-44
2021/01/04 01:13:20;;;;;;;47.13;28.13;;;;;;;0.18;87.26;95481.41;1016453;29;20043;-45
2021/01/04 01:14:13;;;;;;;48.15;29.38;;;;;;;0.17;87.69;95482.41;1029551;28;20523;-43
2021/01/04 01:14:50;;;;;;;46.90;28.13;;;;;;;0.14;87.79;95472.34;1027856;28;20443;-42
2021/01/04 01:15:26;;;;;;;46.55;27.90;;;;;;;0.15;87.57;95479.13;1027847;28;20045;-43
2021/01/04 01:16:19;;;;;;;44.42;28.60;;;;;;;0.16;87.95;95483.34;1023839;29;20131;-43
2021/01/04 01:17:24;;;;;;;44.20;28.25;;;;;;;0.14;87.38;95478.31;1015469;29;20127;-42
2021/01/04 01:18:35;;;;;;;47.72;29.35;;;;;;;0.11;87.93;95478.63;1019365;29;20166;-43
2021/01/04 01:19:28;;;;;;;47.55;28.90;;;;;;;0.17;87.26;95483.19;1019548;29;20063;-43
2021/01/04 01:19:59;;;;;;;42.53;27.23;;;;;;;0.13;87.17;95484.44;1023977;29;20023;-43
2021/01/04 01:20:30;;;;;;;45.23;27.97;;;;;;;0.14;86.94;95487.88;1023779;29;20042;-44
2021/01/04 01:21:02;;;;;;;44.23;27.57;;;;;;;0.17;87.43;95482.41;1019898;29;20027;-42
2021/01/04 01:21:34;;;;;;;43.72;29.17;;;;;;;0.16;87.32;95486.75;1011970;29;20043;-43
2021/01/04 01:22:04;;;;;;;43.55;28.23;;;;;;;0.20;86.51;95484.69;1008162;29;20025;-43
2021/01/04 01:22:36;;;;;;;45.53;29.03;;;;;;;0.15;86.55;95484.31;1008640;29;20116;-43
2021/01/04 01:23:11;;;;;;;41.83;27.23;;;;;;;0.13;86.75;95488.81;1013107;29;20424;-43
2021/01/04 01:23:41;;;;;;;44.88;27.83;;;;;;;0.16;86.62;95485.94;1020434;29;20441;-43
2021/01/04 01:24:13;;;;;;;41.60;28.30;;;;;;;0.14;86.64;95487.88;1027695;28;20030;-43
2021/01/04 01:24:43;;;;;;;38.53;26.08;;;;;;;0.19;86.30;95484.84;1027964;28;20030;-43
2021/01/04 01:25:21;;;;;;;39.97;26.93;;;;;;;0.19;86.05;95484.84;1023886;29;20063;-43
2021/01/04 01:26:16;;;;;;;41.75;27.52;;;;;;;0.22;86.28;95489.72;1023907;29;20114;-43
2021/01/04 01:27:08;;;;;;;41.88;27.88;;;;;;;0.23;86.02;95483.56;1024115;28;20027;-43
2021/01/04 01:28:09;;;;;;;40.05;27.38;;;;;;;0.25;86.04;95489.44;1027897;28;20031;-43
2021/01/04 01:28:50;;;;;;;44.33;27.35;;;;;;;0.29;86.21;95485.56;1027916;28;20483;-44
2021/01/04 01:29:49;;;;;;;44.85;26.98;;;;;;;0.29;86.80;95490.75;1027954;28;20443;-44
2021/01/04 01:30:47;;;;;;;45.63;27.77;;;;;;;0.26;86.51;95480.69;1027892;28;20014;-44
2021/01/04 01:31:33;;;;;;;44.80;27.20;;;;;;;0.30;86.28;95482.03;1020550;29;20087;-44
2021/01/04 01:32:41;;;;;;;42.00;26.58;;;;;;;0.33;86.12;95494.69;1023915;29;20015;-42
2021/01/04 01:33:16;;;;;;;45.67;27.52;;;;;;;0.33;86.56;95487.75;1034870;28;20022;-43
2021/01/04 01:34:20;;;;;;;42.13;27.90;;;;;;;0.25;86.56;95490.22;1032131;28;20133;-43
2021/01/04 01:35:13;;;;;;;42.63;26.10;;;;;;;0.23;86.83;95489.56;1031912;28;20068;-43
2021/01/04 01:36:04;;;;;;;44.75;27.80;;;;;;;0.21;87.20;95496.66;1031270;28;20022;-44
2021/01/04 01:36:59;;;;;;;42.00;27.88;;;;;;;0.24;86.83;95496.38;1027817;28;20023;-43
2021/01/04 01:37:59;;;;;;;44.60;27.10;;;;;;;0.31;86.81;95492.25;1029908;28;20039;-43
2021/01/04 01:38:47;;;;;;;40.88;26.33;;;;;;;0.28;86.62;95499.50;1035074;28;20026;-44
2021/01/04 01:39:31;;;;;;;43.22;26.20;;;;;;;0.24;86.31;95498.97;1031849;28;20153;-43
2021/01/04 01:40:38;;;;;;;38.13;25.83;;;;;;;0.21;86.28;95504.44;1031853;28;20495;-43
2021/01/04 01:41:27;;;;;;;40.55;24.95;;;;;;;0.17;86.32;95503.91;1034475;28;20486;-44
2021/01/04 01:42:46;;;;;;;40.78;25.45;;;;;;;0.20;86.57;95502.81;1035925;28;20036;-44
2021/01/04 01:43:38;;;;;;;41.88;26.13;;;;;;;0.20;86.44;95508.00;1035776;28;20064;-43
2021/01/04 01:44:24;;;;;;;39.50;25.92;;;;;;;0.19;86.20;95501.19;1031904;28;20038;-43
2021/01/04 01:45:05;;;;;;;40.90;26.60;;;;;;;0.20;86.25;95505.41;1031725;28;20190;-44
2021/01/04 01:46:01;;;;;;;41.20;25.77;;;;;;;0.23;86.58;95507.72;1027843;28;20027;-43
2021/01/04 01:46:49;;;;;;;45.13;27.08;;;;;;;0.17;86.74;95506.50;1032122;28;20036;-44
2021/01/04 01:47:30;;;;;;;42.88;26.92;;;;;;;0.12;86.79;95505.31;1034533;28;20399;-44
2021/01/04 01:48:28;;;;;;;41.47;26.02;;;;;;;0.15;86.38;95505.00;1031918;28;20030;-43
2021/01/04 01:49:18;;;;;;;39.58;26.45;;;;;;;0.14;86.60;95498.22;1036815;28;20081;-44
2021/01/04 01:50:20;;;;;;;42.32;26.26;;;;;;;0.13;86.24;95504.34;1047318;28;20032;-42
2021/01/04 01:50:53;;;;;;;43.35;26.83;;;;;;;0.11;86.54;95501.91;1044245;28;20044;-45
2021/01/04 01:51:56;;;;;;;42.85;27.73;;;;;;;0.11;86.73;95507.09;1039952;28;20036;-43
2021/01/04 01:52:32;;;;;;;39.17;25.02;;;;;;;0.12;85.81;95505.31;1040023;28;20083;-44
2021/01/04 01:53:44;;;;;;;37.58;23.95;;;;;;;0.19;85.60;95500.38;1034091;28;20022;-43
2021/01/04 01:54:49;;;;;;;36.95;24.33;;;;;;;0.21;85.22;95506.22;1027654;28;20353;-43
2021/01/04 01:55:23;;;;;;;35.50;22.08;;;;;;;0.14;85.27;95499.03;1044874;28;20078;-45
2021/01/04 01:56:12;;;;;;;39.33;25.10;;;;;;;0.11;85.39;95503.69;1048134;28;20028;-44
2021/01/04 01:57:04;;;;;;;39.53;23.63;;;;;;;0.17;85.71;95503.13;1044281;28;20130;-43
2021/01/04 01:57:54;;;;;;;40.97;24.15;;;;;;;0.15;85.26;95502.41;1044096;28;20108;-44
2021/01/04 01:58:51;;;;;;;36.50;24.05;;;;;;;0.12;84.75;95503.53;1047097;28;20056;-43
2021/01/04 01:59:50;;;;;;;36.50;23.17;;;;;;;0.14;85.40;95503.41;1043971;28;20074;-43
2021/01/04 02:01:13;;;;;;;35.83;23.73;;;;;;;0.14;85.23;95504.22;1040004;28;20478;-43
2021/01/04 02:01:55;;;;;;;35.38;22.70;;;;;;;0.17;85.15;95501.31;1019630;29;20071;-44
2021/01/04 02:02:48;;;;;;;34.22;23.25;;;;;;;0.15;85.04;95499.84;1023772;29;20389;-43
2021/01/04 02:03:54;;;;;;;36.22;23.55;;;;;;;0.13;84.88;95499.19;1028371;28;20030;-43
2021/01/04 02:04:41;;;;;;;35.55;22.55;;;;;;;0.08;85.08;95499.63;1026996;28;20075;-43
2021/01/04 02:05:19;;;;;;;36.35;22.85;;;;;;;0.10;84.96;95508.03;1020001;29;20024;-43
2021/01/04 02:06:03;;;;;;;37.78;24.25;;;;;;;0.07;85.20;95500.56;1021783;29;20087;-43
2021/01/04 02:06:56;;;;;;;34.60;22.55;;;;;;;0.02;84.96;95501.97;1020054;29;20036;-43
2021/01/04 02:07:36;;;;;;;32.97;22.60;;;;;;;0.07;84.80;95497.97;1018483;29;20144;-44
2021/01/04 02:08:10;;;;;;;34.40;22.65;;;;;;;0.03;85.04;95494.06;1019955;29;20477;-43
2021/01/04 02:08:45;;;;;;;36.45;23.55;;;;;;;0.06;84.99;95501.53;1027807;28;20172;-43
2021/01/04 02:09:27;;;;;;;35.03;23.08;;;;;;;0.05;85.10;95497.31;1023861;29;20066;-43
2021/01/04 02:10:00;;;;;;;32.72;22.70;;;;;;;0.07;85.13;95492.00;1023943;29;20544;-43
2021/01/04 02:10:33;;;;;;;34.92;23.35;;;;;;;0.12;84.51;95500.97;1022581;29;20070;-43
2021/01/04 02:11:06;;;;;;;34.38;23.45;;;;;;;0.12;84.44;95489.78;1026138;28;20039;-42
2021/01/04 02:12:09;;;;;;;34.08;22.55;;;;;;;0.20;84.33;95491.63;1028068;28;20065;-43
2021/01/04 02:13:17;;;;;;;34.85;22.90;;;;;;;0.21;84.23;95495.84;1027837;28;20050;-43
2021/01/04 02:14:29;;;;;;;35.88;22.20;;;;;;;0.15;84.43;95500.66;1019712;29;20059;-43
2021/01/04 02:15:11;;;;;;;33.35;22.33;;;;;;;0.16;84.43;95494.50;1019730;29;20159;-43
2021/01/04 02:15:48;;;;;;;34.83;22.25;;;;;;;0.12;84.84;95502.72;1019765;29;20392;-43
2021/01/04 02:16:23;;;;;;;37.55;22.88;;;;;;;0.09;84.92;95496.06;1019959;29;20067;-43
2021/01/04 02:17:24;;;;;;;33.60;22.73;;;;;;;0.13;84.69;95494.00;1018899;29;20106;-44
2021/01/04 02:18:06;;;;;;;32.95;23.00;;;;;;;0.19;85.48;95496.00;1016104;29;20052;-43
2021/01/04 02:19:26;;;;;;;36.35;22.25;;;;;;;0.23;84.37;95496.50;1017675;29;20028;-44
2021/01/04 02:20:21;;;;;;;35.53;22.70;;;;;;;0.25;84.65;95495.41;1008021;29;20120;-43
2021/01/04 02:20:54;;;;;;;33.38;21.70;;;;;;;0.20;83.75;95497.63;1019902;29;20090;-44
2021/01/04 02:21:49;;;;;;;35.05;22.20;;;;;;;0.25;84.19;95500.59;1019901;29;20047;-43
2021/01/04 02:22:25;;;;;;;32.67;21.65;;;;;;;0.17;84.06;95498.75;1022014;29;20063;-46
2021/01/04 02:22:59;;;;;;;31.33;21.55;;;;;;;0.14;83.68;95498.22;1023886;29;20023;-44
2021/01/04 02:23:48;;;;;;;30.70;21.63;;;;;;;0.05;83.88;95499.91;1023730;28;20090;-43
2021/01/04 02:24:25;;;;;;;30.95;21.15;;;;;;;0.14;83.68;95493.84;1023714;29;20365;-42
2021/01/04 02:24:56;;;;;;;32.22;20.55;;;;;;;0.11;83.59;95493.34;1019867;29;20034;-43
2021/01/04 02:25:27;;;;;;;33.07;21.83;;;;;;;0.17;83.85;95492.75;1019850;29;20035;-43
2021/01/04 02:26:00;;;;;;;33.00;22.23;;;;;;;0.15;84.05;95497.25;1015951;29;20084;-42
2021/01/04 02:26:31;;;;;;;33.53;22.20;;;;;;;0.04;83.79;95498.25;1012693;29;20073;-42
2021/01/04 02:27:21;;;;;;;33.17;21.93;;;;;;;0.06;84.52;95492.94;1015897;29;20051;-43
2021/01/04 02:27:53;;;;;;;32.38;21.98;;;;;;;0.07;84.28;95497.16;1012205;29;20032;-43
2021/01/04 02:28:25;;;;;;;32.05;21.90;;;;;;;0.09;84.15;95497.81;1015103;29;20043;-45
2021/01/04 02:29:05;;;;;;;32.30;22.33;;;;;;;0.10;84.18;95491.69;1016004;29;20060;-42
2021/01/04 02:29:36;;;;;;;32.70;21.38;;;;;;;0.12;84.36;95490.59;1014472;29;20036;-43
2021/01/04 02:30:07;;;;;;;30.53;21.07;;;;;;;0.06;84.03;95493.78;1014597;29;20037;-43
2021/01/04 02:30:38;;;;;;;32.08;22.67;;;;;;;0.07;84.17;95489.41;1016800;29;20020;-43
2021/01/04 02:31:09;;;;;;;30.73;21.77;;;;;;;0.08;83.99;95493.63;1017718;29;20028;-43
2021/01/04 02:31:42;;;;;;;31.77;22.23;;;;;;;0.07;83.79;95495.38;1016836;29;20487;-44
2021/01/04 02:32:13;;;;;;;31.95;22.65;;;;;;;0.09;84.26;95495.25;1012895;29;20032;-45
2021/01/04 02:32:43;;;;;;;32.63;22.43;;;;;;;0.12;84.72;95497.53;1012299;29;20042;-43
2021/01/04 02:33:15;;;;;;;33.37;22.90;;;;;;;0.12;84.24;95489.78;1009245;29;20479;-43
2021/01/04 02:33:45;;;;;;;30.77;21.98;;;;;;;0.13;84.22;95489.63;1013126;29;20028;-43
2021/01/04 02:34:17;;;;;;;32.53;22.57;;;;;;;0.16;84.39;95491.91;1012492;29;20029;-44
2021/01/04 02:34:54;;;;;;;33.40;22.40;;;;;;;0.17;84.26;95490.97;1016632;29;20485;-43
2021/01/04 02:35:24;;;;;;;34.80;23.73;;;;;;;0.21;83.78;95488.91;1015041;29;20556;-43
2021/01/04 02:35:55;;;;;;;33.67;22.97;;;;;;;0.21;83.73;95490.69;1013751;29;20021;-42
2021/01/04 02:36:25;;;;;;;34.00;21.77;;;;;;;0.25;83.91;95487.66;1016613;29;20031;-43
2021/01/04 02:36:56;;;;;;;35.83;22.53;;;;;;;0.20;83.46;95486.44;1009560;29;20021;-45
2021/01/04 02:37:27;;;;;;;33.37;22.60;;;;;;;0.17;83.56;95493.56;1005598;29;20029;-44
2021/01/04 02:37:57;;;;;;;32.33;22.30;;;;;;;0.14;84.18;95487.88;1012783;29;20084;-43
2021/01/04 02:38:30;;;;;;;30.93;21.07;;;;;;;0.08;84.26;95488.44;1013007;29;20107;-44
2021/01/04 02:39:07;;;;;;;31.77;21.23;;;;;;;0.07;84.24;95492.78;1013608;29;20090;-42
2021/01/04 02:39:57;;;;;;;31.60;21.92;;;;;;;0.14;83.69;95495.63;1020757;29;20077;-43
2021/01/04 02:40:27;;;;;;;30.88;21.30;;;;;;;0.17;82.76;95492.75;1020704;29;20126;-43
2021/01/04 02:40:58;;;;;;;28.70;19.93;;;;;;;0.12;83.04;95482.84;1027605;28;20085;-43
2021/01/04 02:41:54;;;;;;;28.80;19.33;;;;;;;0.16;82.16;95491.13;1028656;28;20031;-43
2021/01/04 02:42:27;;;;;;;28.17;19.42;;;;;;;0.13;82.30;95488.81;1028687;28;20065;-43
2021/01/04 02:42:57;;;;;;;26.75;18.65;;;;;;;0.13;82.15;95491.41;1028389;28;20102;-43
2021/01/04 02:43:28;;;;;;;28.40;18.97;;;;;;;0.12;82.20;95500.13;1028712;28;20098;-42
2021/01/04 02:43:58;;;;;;;30.83;19.10;;;;;;;0.16;81.67;95497.09;1028790;28;20043;-42
2021/01/04 02:44:29;;;;;;;27.17;18.77;;;;;;;0.14;81.93;95495.63;1028806;28;20011;-43
2021/01/04 02:45:04;;;;;;;29.17;20.10;;;;;;;0.18;82.09;95494.38;1028611;28;20126;-42
2021/01/04 02:45:36;;;;;;;28.45;18.88;;;;;;;0.15;82.11;95492.06;1020682;29;20318;-42
2021/01/04 02:46:07;;;;;;;28.33;18.88;;;;;;;0.13;81.94;95496.59;1016811;29;20035;-43
2021/01/04 02:46:38;;;;;;;28.92;18.95;;;;;;;0.15;81.76;95492.91;1012962;29;20028;-42
2021/01/04 02:47:34;;;;;;;27.63;19.87;;;;;;;0.22;81.25;95503.47;1014047;29;20461;-44
2021/01/04 02:48:26;;;;;;;26.05;18.90;;;;;;;0.31;81.14;95500.00;1023196;29;20035;-42
2021/01/04 02:49:29;;;;;;;21.98;15.77;;;;;;;0.06;80.20;95493.78;1016810;29;20016;-43
2021/01/04 02:50:57;;;;;;;24.55;16.42;;;;;;;0.00;81.22;95496.94;1024335;29;20039;-42
2021/01/04 02:51:31;;;;;;;23.08;14.43;;;;;;;0.04;80.23;95497.47;1025273;28;20063;-42
2021/01/04 02:52:09;;;;;;;21.35;14.80;;;;;;;0.00;79.87;95494.34;1028728;28;20026;-42
2021/01/04 02:53:13;;;;;;;23.48;16.10;;;;;;;0.08;80.57;95493.63;1020588;29;20030;-43
2021/01/04 02:54:19;;;;;;;25.50;16.40;;;;;;;0.06;80.16;95491.19;1022309;29;20035;-43
2021/01/04 02:54:54;;;;;;;23.13;16.38;;;;;;;0.09;80.71;95495.25;1032532;28;20031;-46
2021/01/04 02:55:33;;;;;;;22.73;16.35;;;;;;;0.13;81.07;95491.41;1024686;29;20131;-44
2021/01/04 02:56:31;;;;;;;28.38;18.15;;;;;;;0.08;80.96;95488.44;1024907;29;20024;-44
2021/01/04 02:57:23;;;;;;;25.52;17.13;;;;;;;0.16;80.81;95491.91;1018247;29;20025;-44
2021/01/04 02:57:59;;;;;;;24.45;17.20;;;;;;;0.15;81.31;95492.91;1021042;29;20024;-43
2021/01/04 02:59:07;;;;;;;23.42;16.83;;;;;;;0.14;81.23;95493.84;1020537;29;20042;-43
2021/01/04 02:59:46;;;;;;;28.33;18.25;;;;;;;0.05;81.72;95493.94;1024321;28;20043;-43
2021/01/04 03:00:18;;;;;;;28.33;19.00;;;;;;;0.09;81.71;95496.06;1026541;28;20413;-44
2021/01/04 03:00:52;;;;;;;25.38;18.23;;;;;;;0.08;81.64;95493.63;1020518;29;20122;-44
2021/01/04 03:01:51;;;;;;;26.35;17.80;;;;;;;0.13;81.26;95492.22;1012628;29;20065;-44
2021/01/04 03:02:34;;;;;;;25.92;17.55;;;;;;;0.08;81.43;95496.22;1013696;29;20051;-43
2021/01/04 03:03:05;;;;;;;25.98;18.75;;;;;;;0.15;81.43;95494.66;1023582;28;20445;-43
2021/01/04 03:03:36;;;;;;;26.03;17.90;;;;;;;0.15;81.13;95499.84;1020591;29;20027;-43
2021/01/04 03:04:10;;;;;;;25.90;17.93;;;;;;;0.12;81.18;95500.97;1016659;29;20027;-42
2021/01/04 03:04:41;;;;;;;28.05;19.15;;;;;;;0.14;81.30;95490.47;1013498;29;20055;-43
2021/01/04 03:05:16;;;;;;;29.50;19.30;;;;;;;0.17;81.62;95497.94;1025098;28;20035;-44
2021/01/04 03:05:47;;;;;;;27.50;18.98;;;;;;;0.16;81.48;95501.47;1024655;29;20622;-43
2021/01/04 03:06:23;;;;;;;26.30;19.10;;;;;;;0.21;81.00;95501.84;1025429;28;20045;-45
2021/01/04 03:07:26;;;;;;;27.52;19.65;;;;;;;0.21;81.24;95501.03;1028572;28;20073;-43
2021/01/04 03:07:58;;;;;;;25.55;18.25;;;;;;;0.17;81.00;95503.13;1024536;29;20035;-44
2021/01/04 03:08:29;;;;;;;25.77;18.88;;;;;;;0.20;81.05;95505.41;1025697;28;20024;-43
2021/01/04 03:08:59;;;;;;;27.30;19.33;;;;;;;0.16;81.78;95502.28;1028496;28;20023;-44
2021/01/04 03:09:31;;;;;;;28.93;19.23;;;;;;;0.14;81.84;95496.44;1028947;28;20056;-43
2021/01/04 03:10:17;;;;;;;26.40;19.30;;;;;;;0.13;81.58;95501.75;1028633;28;20018;-43
2021/01/04 03:10:47;;;;;;;26.38;18.08;;;;;;;0.13;81.43;95502.56;1028554;28;20467;-42
2021/01/04 03:11:18;;;;;;;27.33;19.10;;;;;;;0.16;81.27;95491.13;1028408;28;20019;-43
2021/01/04 03:11:48;;;;;;;26.43;18.73;;;;;;;0.14;81.45;95498.22;1030560;28;20043;-43
2021/01/04 03:12:24;;;;;;;26.97;18.77;;;;;;;0.12;81.69;95500.13;1028526;28;20046;-44
2021/01/04 03:13:13;;;;;;;26.80;19.00;;;;;;;0.20;81.23;95500.22;1028358;28;20352;-44
2021/01/04 03:13:56;;;;;;;27.05;19.42;;;;;;;0.12;81.80;95495.78;1028410;28;20019;-44
2021/01/04 03:14:49;;;;;;;26.83;18.95;;;;;;;0.05;81.69;95489.56;1032473;28;20434;-43
2021/01/04 03:15:41;;;;;;;27.38;18.67;;;;;;;0.08;81.65;95496.22;1028148;28;20083;-42
2021/01/04 03:16:37;;;;;;;27.05;17.95;;;;;;;0.03;82.00;95496.66;1021929;29;20531;-43
2021/01/04 03:17:30;;;;;;;27.67;19.25;;;;;;;0.10;82.34;95492.50;1020402;29;20020;-45
2021/01/04 03:18:33;;;;;;;28.88;19.85;;;;;;;0.11;82.04;95494.16;1021664;28;20475;-43
2021/01/04 03:19:11;;;;;;;29.00;17.95;;;;;;;0.12;81.67;95489.78;1025509;28;20019;-42
2021/01/04 03:19:43;;;;;;;26.70;18.63;;;;;;;0.17;81.43;95490.16;1020237;28;20016;-44
2021/01/04 03:20:16;;;;;;;29.55;19.73;;;;;;;0.20;81.49;95489.88;1012902;29;20028;-43
2021/01/04 03:20:46;;;;;;;28.25;19.80;;;;;;;0.18;81.23;95494.38;1016584;29;20425;-43
2021/01/04 03:21:17;;;;;;;26.50;19.73;;;;;;;0.18;81.50;95494.38;1017038;29;20179;-43
2021/01/04 03:22:08;;;;;;;27.00;17.93;;;;;;;0.18;80.99;95486.59;1016657;29;20116;-43
2021/01/04 03:22:39;;;;;;;27.95;19.13;;;;;;;0.09;81.67;95492.66;1023378;29;20041;-43
2021/01/04 03:23:09;;;;;;;29.90;18.83;;;;;;;0.12;82.23;95495.78;1042787;28;20048;-43
2021/01/04 03:23:46;;;;;;;27.70;19.50;;;;;;;0.10;81.86;95492.50;1044674;28;20400;-45
2021/01/04 03:24:16;;;;;;;27.50;19.63;;;;;;;0.14;81.85;95493.06;1039155;28;20036;-44
2021/01/04 03:24:48;;;;;;;28.83;20.53;;;;;;;0.03;81.81;95499.25;1032421;28;20439;-45
2021/01/04 03:25:41;;;;;;;29.85;19.85;;;;;;;0.06;82.59;95491.19;1028647;28;20030;-44
2021/01/04 03:26:15;;;;;;;30.50;19.92;;;;;;;0.15;82.07;95495.50;1035002;28;20389;-44